createdAt,value
2022-10-17T00:00:15.696Z,13.47
2022-10-17T00:05:07.656Z,13.49
2022-10-17T00:09:59.296Z,13.50
2022-10-17T00:14:50.942Z,13.51
2022-10-17T00:19:43.535Z,13.52
2022-10-17T00:24:35.239Z,13.56
2022-10-17T00:29:27.113Z,13.57
2022-10-17T00:34:18.690Z,13.59
2022-10-17T00:39:10.310Z,13.60
2022-10-17T00:44:06.020Z,13.63
2022-10-17T00:49:00.897Z,13.64
2022-10-17T00:53:52.669Z,13.65
2022-10-17T00:58:44.441Z,13.67
2022-10-17T01:03:36.099Z,13.69
2022-10-17T01:08:27.843Z,13.69
2022-10-17T01:13:28.551Z,13.70
2022-10-17T01:18:30.177Z,13.69
2022-10-17T01:23:28.404Z,13.68
2022-10-17T01:28:26.339Z,13.68
2022-10-17T01:33:29.968Z,13.62
2022-10-17T01:38:35.241Z,13.57
2022-10-17T01:43:59.838Z,13.54
2022-10-17T01:48:53.882Z,13.51
2022-10-17T01:54:11.826Z,13.48
2022-10-17T01:59:11.047Z,13.44
2022-10-17T02:04:05.734Z,13.41
2022-10-17T02:08:57.895Z,13.36
2022-10-17T02:14:19.644Z,13.37
2022-10-17T02:19:31.054Z,13.36
2022-10-17T02:24:44.707Z,13.36
2022-10-17T02:29:57.147Z,13.33
2022-10-17T02:34:53.712Z,13.35
2022-10-17T02:39:47.587Z,13.32
2022-10-17T02:44:41.892Z,13.28
2022-10-17T02:49:39.451Z,13.25
2022-10-17T02:54:41.852Z,13.25
2022-10-17T02:59:36.815Z,13.23
2022-10-17T03:04:28.538Z,13.21
2022-10-17T03:09:20.124Z,13.19
2022-10-17T03:14:11.698Z,13.20
2022-10-17T03:19:04.054Z,13.17
2022-10-17T03:23:55.824Z,13.13
2022-10-17T03:28:50.655Z,13.08
2022-10-17T03:33:45.173Z,13.07
2022-10-17T03:38:37.354Z,13.04
2022-10-17T03:43:29.717Z,13.01
2022-10-17T03:48:21.344Z,12.96
2022-10-17T03:53:13.039Z,12.93
2022-10-17T03:58:04.748Z,12.87
2022-10-17T04:02:58.017Z,12.81
2022-10-17T04:07:49.763Z,12.76
2022-10-17T04:12:41.447Z,12.71
2022-10-17T04:17:37.255Z,12.66
2022-10-17T04:22:30.230Z,12.61
2022-10-17T04:27:22.427Z,12.57
2022-10-17T04:32:14.185Z,12.52
2022-10-17T04:37:05.847Z,12.49
2022-10-17T04:41:57.420Z,12.47
2022-10-17T04:46:49.072Z,12.45
2022-10-17T04:51:40.731Z,12.41
2022-10-17T04:56:32.525Z,12.36
2022-10-17T05:01:24.520Z,12.35
2022-10-17T05:06:18.884Z,12.29
2022-10-17T05:11:28.096Z,12.21
2022-10-17T05:16:20.737Z,12.19
2022-10-17T05:21:12.332Z,12.12
2022-10-17T05:26:04.048Z,12.03
2022-10-17T05:30:55.982Z,11.99
2022-10-17T05:35:47.557Z,11.96
2022-10-17T05:40:39.521Z,11.92
2022-10-17T05:45:31.241Z,11.86
2022-10-17T05:50:24.288Z,11.81
2022-10-17T05:55:15.978Z,11.77
2022-10-17T06:00:08.285Z,11.72
2022-10-17T06:05:00.053Z,11.67
2022-10-17T06:09:51.696Z,11.61
2022-10-17T06:14:43.396Z,11.58
2022-10-17T06:19:35.425Z,11.53
2022-10-17T06:24:27.177Z,11.50
2022-10-17T06:29:18.976Z,11.45
2022-10-17T06:34:10.738Z,11.40
2022-10-17T06:39:02.429Z,11.34
2022-10-17T06:43:54.089Z,11.31
2022-10-17T06:48:46.211Z,11.28
2022-10-17T06:53:39.896Z,11.28
2022-10-17T06:58:37.109Z,11.29
2022-10-17T07:03:29.696Z,11.28
2022-10-17T07:08:21.615Z,11.28
2022-10-17T07:13:13.359Z,11.29
2022-10-17T07:18:05.583Z,11.32
2022-10-17T07:22:57.376Z,11.31
2022-10-17T07:27:50.260Z,11.29
2022-10-17T07:32:43.040Z,11.29
2022-10-17T07:37:34.732Z,11.28
2022-10-17T07:42:27.947Z,11.27
2022-10-17T07:47:19.668Z,11.28
2022-10-17T07:52:14.993Z,11.33
2022-10-17T07:57:07.569Z,11.50
2022-10-17T08:01:59.598Z,12.04
2022-10-17T08:06:56.425Z,12.69
2022-10-17T08:11:52.357Z,13.33
2022-10-17T08:16:44.152Z,13.73
2022-10-17T08:21:35.952Z,14.11
2022-10-17T08:26:27.832Z,14.63
2022-10-17T08:31:20.626Z,15.08
2022-10-17T08:36:14.786Z,15.51
2022-10-17T08:41:15.388Z,15.90
2022-10-17T08:46:09.083Z,16.16
2022-10-17T08:51:12.656Z,16.42
2022-10-17T08:56:24.927Z,16.65
2022-10-17T09:01:44.705Z,16.91
2022-10-17T09:06:42.944Z,17.18
2022-10-17T09:12:00.903Z,17.28
2022-10-17T09:17:11.326Z,17.38
2022-10-17T09:22:12.207Z,17.54
2022-10-17T09:27:04.066Z,17.68
2022-10-17T09:32:11.578Z,17.83
2022-10-17T09:37:03.638Z,17.96
2022-10-17T09:41:57.645Z,18.12
2022-10-17T09:46:54.106Z,18.30
2022-10-17T09:51:46.220Z,18.40
2022-10-17T09:57:07.572Z,18.66
2022-10-17T10:02:12.797Z,18.87
2022-10-17T10:07:07.000Z,19.02
2022-10-17T10:12:03.793Z,19.00
2022-10-17T10:16:55.632Z,18.82
2022-10-17T10:21:56.926Z,18.73
2022-10-17T10:26:50.532Z,18.88
2022-10-17T10:31:42.328Z,19.08
2022-10-17T10:36:51.793Z,19.21
2022-10-17T10:41:48.649Z,19.11
2022-10-17T10:46:40.412Z,19.01
2022-10-17T10:51:48.050Z,19.14
2022-10-17T10:56:54.943Z,18.97
2022-10-17T11:02:02.347Z,18.78
2022-10-17T11:07:04.933Z,18.73
2022-10-17T11:12:05.292Z,18.67
2022-10-17T11:17:12.597Z,18.51
2022-10-17T11:22:28.192Z,18.37
2022-10-17T11:27:20.963Z,18.29
2022-10-17T11:32:27.710Z,18.31
2022-10-17T11:37:25.533Z,18.33
2022-10-17T11:42:26.592Z,18.38
2022-10-17T11:47:45.524Z,18.43
2022-10-17T11:53:10.661Z,18.41
2022-10-17T11:58:10.108Z,18.40
2022-10-17T12:03:20.224Z,18.41
2022-10-17T12:08:44.085Z,18.53
2022-10-17T12:13:41.298Z,18.52
2022-10-17T12:18:33.196Z,18.52
2022-10-17T12:23:32.605Z,18.46
2022-10-17T12:28:27.061Z,18.35
2022-10-17T12:33:32.028Z,18.26
2022-10-17T12:38:26.745Z,18.20
2022-10-17T12:43:18.265Z,18.17
2022-10-17T12:48:10.603Z,18.05
2022-10-17T12:53:07.152Z,17.96
2022-10-17T12:58:01.679Z,17.83
2022-10-17T13:02:56.318Z,17.74
2022-10-17T13:07:50.193Z,17.65
2022-10-17T13:12:42.107Z,17.57
2022-10-17T13:17:34.904Z,17.49
2022-10-17T13:22:30.363Z,17.48
2022-10-17T13:27:25.310Z,17.52
2022-10-17T13:32:16.962Z,17.45
2022-10-17T13:37:13.498Z,17.32
2022-10-17T13:42:06.118Z,17.25
2022-10-17T13:46:57.997Z,17.22
2022-10-17T13:51:53.446Z,17.17
2022-10-17T13:56:45.630Z,17.15
2022-10-17T14:01:38.333Z,17.07
2022-10-17T14:06:31.569Z,17.04
2022-10-17T14:11:26.192Z,17.06
2022-10-17T14:16:18.152Z,17.09
2022-10-17T14:26:24.106Z,17.04
2022-10-17T14:31:15.893Z,17.03
2022-10-17T14:36:07.668Z,16.95
2022-10-17T14:46:18.365Z,16.86
2022-10-17T14:51:09.906Z,16.78
2022-10-17T14:56:04.336Z,16.70
2022-10-17T15:00:57.464Z,16.68
2022-10-17T15:05:50.441Z,16.62
2022-10-17T15:10:43.034Z,16.57
2022-10-17T15:15:35.567Z,16.53
2022-10-17T15:20:30.357Z,16.51
2022-10-17T15:25:22.382Z,16.47
2022-10-17T15:30:40.504Z,16.45
2022-10-17T15:35:32.217Z,16.42
2022-10-17T15:40:29.665Z,16.40
2022-10-17T15:45:22.387Z,16.36
2022-10-17T15:50:15.794Z,16.32
2022-10-17T15:55:09.320Z,16.23
2022-10-17T16:00:01.103Z,16.11
2022-10-17T16:04:52.946Z,16.00
2022-10-17T16:09:44.932Z,15.92
2022-10-17T16:14:36.628Z,15.84
2022-10-17T16:19:30.040Z,15.74
2022-10-17T16:24:21.868Z,15.64
2022-10-17T16:29:13.579Z,15.51
2022-10-17T16:34:06.702Z,15.45
2022-10-17T16:38:58.691Z,15.34
2022-10-17T16:43:51.870Z,15.28
2022-10-17T16:48:44.679Z,15.19
2022-10-17T16:53:40.024Z,15.06
2022-10-17T16:58:32.397Z,14.92
2022-10-17T17:03:24.137Z,14.78
2022-10-17T17:08:16.034Z,14.67
2022-10-17T17:13:07.761Z,14.55
2022-10-17T17:18:04.947Z,14.44
2022-10-17T17:22:57.172Z,14.35
2022-10-17T17:27:48.866Z,14.19
2022-10-17T17:32:40.537Z,14.13
2022-10-17T17:37:32.533Z,14.03
2022-10-17T17:42:24.538Z,13.91
2022-10-17T17:47:16.204Z,13.84
2022-10-17T17:52:07.927Z,13.76
2022-10-17T17:56:59.545Z,13.65
2022-10-17T18:01:51.372Z,13.58
2022-10-17T18:06:43.231Z,13.50
2022-10-17T18:11:36.092Z,13.45
2022-10-17T18:16:29.159Z,13.37
2022-10-17T18:21:21.095Z,13.28
2022-10-17T18:26:14.453Z,13.18
2022-10-17T18:31:15.531Z,13.10
2022-10-17T18:36:12.361Z,13.05
2022-10-17T18:41:09.322Z,12.99
2022-10-17T18:46:16.268Z,12.91
2022-10-17T18:51:08.494Z,12.85
2022-10-17T18:56:00.596Z,12.83
2022-10-17T19:00:52.480Z,12.79
2022-10-17T19:05:48.035Z,12.73
2022-10-17T19:10:40.078Z,12.69
2022-10-17T19:15:31.702Z,12.59
2022-10-17T19:20:23.347Z,12.51
2022-10-17T19:25:15.269Z,12.45
2022-10-17T19:30:07.564Z,12.34
2022-10-17T19:34:59.143Z,12.27
2022-10-17T19:39:50.972Z,12.24
2022-10-17T19:44:42.700Z,12.18
2022-10-17T19:49:34.312Z,12.16
2022-10-17T19:54:26.668Z,12.12
2022-10-17T19:59:18.506Z,12.09
2022-10-17T20:04:11.353Z,12.04
2022-10-17T20:09:04.912Z,12.02
2022-10-17T20:13:57.019Z,12.00
2022-10-17T20:18:50.536Z,11.98
2022-10-17T20:23:43.484Z,11.93
2022-10-17T20:28:35.301Z,11.86
2022-10-17T20:33:31.715Z,11.81
2022-10-17T20:38:23.632Z,11.70
2022-10-17T20:43:15.336Z,11.64
2022-10-17T20:48:07.802Z,11.57
2022-10-17T20:53:24.499Z,11.49
2022-10-17T20:58:11.521Z,11.43
2022-10-17T21:03:03.173Z,11.40
2022-10-17T21:07:55.232Z,11.34
2022-10-17T21:12:53.854Z,11.29
2022-10-17T21:17:46.299Z,11.20
2022-10-17T21:22:37.937Z,11.15
2022-10-17T21:27:29.541Z,11.09
2022-10-17T21:32:33.566Z,11.06
2022-10-17T21:37:33.675Z,11.02
2022-10-17T21:42:25.679Z,10.98
2022-10-17T21:47:17.478Z,10.86
2022-10-17T21:52:09.157Z,10.80
2022-10-17T21:57:01.036Z,10.64
2022-10-17T22:01:52.791Z,10.54
2022-10-17T22:06:46.381Z,10.49
2022-10-17T22:11:38.230Z,10.37
2022-10-17T22:16:30.053Z,10.25
2022-10-17T22:21:22.332Z,10.18
2022-10-17T22:26:14.871Z,10.16
2022-10-17T22:31:07.001Z,10.15
2022-10-17T22:35:59.040Z,10.04
2022-10-17T22:40:50.751Z,9.90
2022-10-17T22:45:42.454Z,9.78
2022-10-17T22:50:34.426Z,9.75
2022-10-17T22:55:26.857Z,9.64
2022-10-17T23:00:18.896Z,9.55
2022-10-17T23:05:11.339Z,9.50
2022-10-17T23:10:03.253Z,9.46
2022-10-17T23:14:55.047Z,9.39
2022-10-17T23:19:46.677Z,9.38
2022-10-17T23:24:38.331Z,9.34
2022-10-17T23:29:34.154Z,9.32
2022-10-17T23:34:25.951Z,9.30
2022-10-17T23:39:17.560Z,9.31
2022-10-17T23:44:11.336Z,9.30
2022-10-17T23:49:03.676Z,9.25
2022-10-17T23:53:55.738Z,9.23
2022-10-17T23:58:47.424Z,9.25
